Time;durP1;ratioP1;P1;durP2;ratioP2;P2;SDS_P1;SDS_P2;PMS_P1;PMS_P2;Temp;Humidity;BMP_temperature;BMP_pressure;BME280_temperature;BME280_humidity;BME280_pressure;Samples;Min_cycle;Max_cycle;Signal;HPM_P1;HPM_P2
2022/05/07 00:02:17;;;;;;;;;14.00;14.00;;;;;22.79;39.87;101513.73;110629;1257;18951;-48
2022/05/07 00:04:44;;;;;;;;;13.00;13.00;;;;;22.80;39.85;101512.29;110636;1258;22689;-48
2022/05/07 00:07:11;;;;;;;;;13.33;13.00;;;;;22.79;39.75;101510.25;110562;1259;18750;-50
2022/05/07 00:09:38;;;;;;;;;14.67;14.00;;;;;22.80;39.64;101509.77;110706;1258;22357;-50
2022/05/07 00:12:06;;;;;;;;;14.33;13.33;;;;;22.79;39.84;101506.98;110646;1258;20995;-49
2022/05/07 00:14:34;;;;;;;;;11.33;10.67;;;;;22.79;39.82;101502.67;110634;1259;22258;-49
2022/05/07 00:19:47;;;;;;;;;13.00;11.00;;;;;22.78;39.83;101506.13;110655;1259;19462;-50
2022/05/07 00:22:14;;;;;;;;;13.67;12.33;;;;;22.77;39.85;101505.73;110609;1258;18692;-49
2022/05/07 00:24:41;;;;;;;;;15.67;14.00;;;;;22.78;39.78;101504.34;110623;1258;19022;-48
2022/05/07 00:27:09;;;;;;;;;11.00;11.00;;;;;22.78;39.89;101506.95;110614;1259;19959;-50
2022/05/07 00:29:36;;;;;;;;;13.67;11.00;;;;;22.78;39.80;101503.31;110571;1258;21299;-49
2022/05/07 00:32:03;;;;;;;;;14.67;13.33;;;;;22.78;39.76;101501.82;110536;1258;18806;-48
2022/05/07 00:34:30;;;;;;;;;13.00;11.00;;;;;22.77;39.77;101499.14;110500;1259;21744;-46
2022/05/07 00:36:58;;;;;;;;;13.00;12.00;;;;;22.77;39.90;101501.70;110659;1258;18922;-48
2022/05/07 00:39:25;;;;;;;;;14.00;13.33;;;;;22.78;39.72;101502.19;110617;1257;21959;-49
2022/05/07 00:41:53;;;;;;;;;13.00;13.00;;;;;22.78;39.92;101497.64;110529;1259;19804;-49
2022/05/07 00:44:22;;;;;;;;;11.67;11.00;;;;;22.76;39.75;101500.15;110763;1258;20237;-51
2022/05/07 00:46:49;;;;;;;;;11.00;11.00;;;;;22.76;39.71;101498.90;110764;1258;18675;-49
2022/05/07 00:49:16;;;;;;;;;13.00;11.67;;;;;22.76;39.88;101499.83;110617;1259;19449;-48
2022/05/07 00:51:43;;;;;;;;;13.67;13.00;;;;;22.76;39.81;101503.17;110534;1258;18851;-47
2022/05/07 00:54:11;;;;;;;;;14.67;14.00;;;;;22.76;39.75;101505.91;110647;1258;19773;-49
2022/05/07 00:56:38;;;;;;;;;14.00;11.00;;;;;22.76;39.82;101503.86;110612;1258;19580;-48
2022/05/07 00:59:06;;;;;;;;;16.33;15.00;;;;;22.76;39.87;101500.81;110788;1258;18661;-49
2022/05/07 01:01:33;;;;;;;;;13.00;13.00;;;;;22.75;39.69;101497.23;110791;1258;18811;-49
2022/05/07 01:04:00;;;;;;;;;17.00;13.33;;;;;22.75;39.78;101497.54;110595;1258;22602;-49
2022/05/07 01:06:27;;;;;;;;;12.33;11.00;;;;;22.75;39.86;101495.08;110748;1258;18843;-52
2022/05/07 01:08:55;;;;;;;;;12.00;11.00;;;;;22.75;39.95;101495.94;110546;1258;19551;-50
2022/05/07 01:11:22;;;;;;;;;14.50;13.50;;;;;22.76;39.94;101499.27;110667;1258;21376;-48
2022/05/07 01:13:49;;;;;;;;;12.50;11.00;;;;;22.76;39.89;101498.97;110748;1259;22328;-49
2022/05/07 01:16:16;;;;;;;;;11.00;11.00;;;;;22.76;39.82;101497.87;110595;1259;18959;-47
2022/05/07 01:18:44;;;;;;;;;10.00;10.00;;;;;22.76;39.91;101497.13;110794;1258;19541;-46
2022/05/07 01:21:12;;;;;;;;;17.00;15.00;;;;;22.76;39.84;101494.36;110624;1259;18872;-48
2022/05/07 01:23:39;;;;;;;;;13.33;12.33;;;;;22.76;39.98;101493.44;110569;1258;19043;-49
2022/05/07 01:26:06;;;;;;;;;17.67;13.33;;;;;22.76;39.83;101489.27;110762;1258;19776;-47
2022/05/07 01:28:33;;;;;;;;;14.00;13.00;;;;;22.75;39.76;101486.61;110790;1259;22222;-49
2022/05/07 01:31:01;;;;;;;;;14.67;13.00;;;;;22.75;39.87;101487.52;110612;1259;18821;-49
2022/05/07 01:33:28;;;;;;;;;13.00;12.33;;;;;22.75;39.97;101487.48;110777;1259;19660;-47
2022/05/07 01:35:56;;;;;;;;;14.00;13.50;;;;;22.75;39.77;101484.24;110635;1259;18693;-47
2022/05/07 01:38:23;;;;;;;;;13.00;11.00;;;;;22.75;39.73;101482.09;110770;1259;18927;-49
2022/05/07 01:40:50;;;;;;;;;14.00;13.67;;;;;22.75;39.87;101482.64;110630;1259;22137;-50
2022/05/07 01:43:17;;;;;;;;;11.00;11.00;;;;;22.74;39.95;101481.61;110649;1258;18830;-50
2022/05/07 01:45:45;;;;;;;;;13.00;13.00;;;;;22.75;39.86;101481.75;110627;1258;18911;-49
2022/05/07 01:48:13;;;;;;;;;11.67;11.67;;;;;22.75;39.90;101480.58;110621;1258;19575;-49
2022/05/07 01:50:40;;;;;;;;;14.00;13.00;;;;;22.75;39.87;101483.60;110632;1258;18977;-47
2022/05/07 01:53:08;;;;;;;;;14.00;14.00;;;;;22.75;39.79;101483.77;110704;1258;18813;-47
2022/05/07 01:55:35;;;;;;;;;11.67;10.67;;;;;22.75;39.81;101484.83;110625;1258;20829;-49
2022/05/07 01:58:02;;;;;;;;;16.33;14.00;;;;;22.75;40.07;101479.43;110631;1258;20302;-48
2022/05/07 02:00:30;;;;;;;;;14.67;11.00;;;;;22.75;39.90;101481.75;110553;1259;22893;-48
2022/05/07 02:02:58;;;;;;;;;12.33;10.67;;;;;22.75;39.89;101481.75;110633;1258;19609;-48
2022/05/07 02:05:25;;;;;;;;;13.33;13.00;;;;;22.74;39.87;101478.20;110690;1258;18758;-48
2022/05/07 02:07:52;;;;;;;;;15.67;14.33;;;;;22.74;39.90;101482.16;110654;1259;22312;-49
2022/05/07 02:10:19;;;;;;;;;13.00;13.00;;;;;22.74;39.94;101485.86;110619;1257;19628;-48
2022/05/07 02:12:46;;;;;;;;;11.67;10.67;;;;;22.74;39.83;101484.80;110573;1259;18665;-48
2022/05/07 02:15:14;;;;;;;;;15.67;14.00;;;;;22.74;40.09;101485.69;110622;1259;19069;-49
2022/05/07 02:17:41;;;;;;;;;13.67;13.00;;;;;22.74;39.95;101484.17;110604;1258;22756;-50
2022/05/07 02:20:08;;;;;;;;;15.00;14.00;;;;;22.74;39.94;101480.60;110660;1259;18813;-49
2022/05/07 02:22:36;;;;;;;;;14.67;14.00;;;;;22.74;39.95;101481.69;110609;1258;19055;-47
2022/05/07 02:25:03;;;;;;;;;15.00;12.33;;;;;22.74;40.00;101479.64;110587;1259;19546;-47
2022/05/07 02:27:30;;;;;;;;;15.00;14.50;;;;;22.74;40.08;101479.30;110590;1258;19033;-50
2022/05/07 02:29:57;;;;;;;;;16.33;13.67;;;;;22.74;40.00;101478.88;110602;1259;21273;-49
2022/05/07 02:32:25;;;;;;;;;13.33;13.00;;;;;22.75;39.87;101480.66;110621;1259;19647;-42
2022/05/07 02:34:52;;;;;;;;;13.00;10.33;;;;;22.74;40.10;101479.09;110585;1259;18757;-47
2022/05/07 02:37:19;;;;;;;;;14.00;13.00;;;;;22.75;39.85;101484.14;110656;1259;19009;-48
2022/05/07 02:39:48;;;;;;;;;15.67;14.00;;;;;22.76;39.91;101485.30;110754;1259;19532;-48
2022/05/07 02:45:01;;;;;;;;;14.33;11.67;;;;;22.74;39.93;101479.43;110660;1259;19120;-48
2022/05/07 02:47:28;;;;;;;;;16.00;14.00;;;;;22.73;40.01;101480.30;110722;1258;20351;-44
2022/05/07 02:49:55;;;;;;;;;14.00;13.67;;;;;22.74;40.05;101482.45;110764;1258;18760;-48
2022/05/07 02:52:22;;;;;;;;;13.00;12.00;;;;;22.75;40.10;101480.70;110764;1258;18907;-50
2022/05/07 02:54:49;;;;;;;;;13.67;13.00;;;;;22.75;39.98;101476.21;110667;1258;21812;-50
2022/05/07 02:57:17;;;;;;;;;13.33;13.00;;;;;22.75;39.90;101478.98;110736;1259;18719;-53
2022/05/07 02:59:44;;;;;;;;;16.33;14.67;;;;;22.74;40.22;101480.73;110756;1258;18829;-48
2022/05/07 03:02:11;;;;;;;;;17.50;16.00;;;;;22.76;40.12;101481.14;110668;1259;19656;-50
2022/05/07 03:04:39;;;;;;;;;14.33;13.33;;;;;22.74;39.94;101476.98;110774;1258;18867;-48
2022/05/07 03:07:07;;;;;;;;;11.00;11.00;;;;;22.74;39.94;101477.11;110619;1259;19162;-48
2022/05/07 03:09:34;;;;;;;;;13.50;13.50;;;;;22.74;40.00;101477.08;110756;1259;19518;-50
2022/05/07 03:12:01;;;;;;;;;14.33;13.00;;;;;22.74;39.98;101475.71;110616;1259;22223;-48
2022/05/07 03:14:28;;;;;;;;;14.00;13.00;;;;;22.73;40.09;101469.19;110825;1259;18772;-48
2022/05/07 03:16:55;;;;;;;;;15.00;13.33;;;;;22.74;40.12;101474.55;110627;1257;19449;-51
2022/05/07 03:19:23;;;;;;;;;13.67;13.00;;;;;22.75;40.03;101474.23;110736;1258;21052;-48
2022/05/07 03:21:50;;;;;;;;;14.67;14.33;;;;;22.74;40.07;101478.92;110599;1258;19031;-49
2022/05/07 03:24:17;;;;;;;;;13.00;11.67;;;;;22.74;39.93;101478.34;110688;1258;19633;-48
2022/05/07 03:26:44;;;;;;;;;14.00;14.00;;;;;22.73;39.88;101478.70;110747;1259;20222;-48
2022/05/07 03:29:12;;;;;;;;;17.67;15.00;;;;;22.74;40.15;101481.27;110662;1259;18956;-48
2022/05/07 03:31:39;;;;;;;;;15.67;14.33;;;;;22.74;40.00;101485.65;110491;1261;21163;-50
2022/05/07 03:34:08;;;;;;;;;17.00;15.00;;;;;22.74;40.07;101483.49;110679;1259;18809;-49
2022/05/07 03:36:35;;;;;;;;;14.33;12.33;;;;;22.75;40.14;101483.23;110714;1258;18835;-51
2022/05/07 03:39:03;;;;;;;;;13.33;13.00;;;;;22.75;40.10;101486.47;110787;1258;19683;-48
2022/05/07 03:41:30;;;;;;;;;14.00;14.00;;;;;22.75;40.28;101481.24;110629;1258;21440;-49
2022/05/07 03:43:57;;;;;;;;;15.67;14.33;;;;;22.75;40.03;101481.34;110761;1259;18852;-50
2022/05/07 03:46:25;;;;;;;;;13.00;13.00;;;;;22.76;40.09;101479.29;110763;1258;22252;-50
2022/05/07 03:48:53;;;;;;;;;15.00;14.67;;;;;22.75;40.05;101478.77;110626;1259;18698;-49
2022/05/07 03:51:20;;;;;;;;;15.00;13.00;;;;;22.75;40.06;101477.21;110783;1258;18900;-48
2022/05/07 03:53:47;;;;;;;;;13.00;11.00;;;;;22.74;39.98;101476.73;110762;1258;19558;-49
2022/05/07 03:56:15;;;;;;;;;13.50;13.00;;;;;22.75;40.13;101480.83;110683;1258;24064;-49
2022/05/07 03:58:42;;;;;;;;;14.00;13.00;;;;;22.75;40.05;101483.77;110758;1258;22806;-50
2022/05/07 04:01:10;;;;;;;;;14.67;13.67;;;;;22.75;40.04;101486.80;110632;1259;19367;-49
2022/05/07 04:03:37;;;;;;;;;13.00;11.00;;;;;22.75;40.17;101485.95;110774;1258;18757;-50
2022/05/07 04:06:04;;;;;;;;;13.00;13.00;;;;;22.74;40.03;101486.03;110602;1259;18821;-50
2022/05/07 04:08:32;;;;;;;;;15.67;13.33;;;;;22.76;40.11;101483.48;110641;1258;19665;-46
2022/05/07 04:10:59;;;;;;;;;14.00;13.00;;;;;22.75;40.12;101483.77;110801;1258;18690;-47
2022/05/07 04:13:26;;;;;;;;;12.00;11.00;;;;;22.75;39.99;101488.44;110655;1258;18802;-49
2022/05/07 04:15:56;;;;;;;;;13.33;12.33;;;;;22.74;40.03;101484.35;110465;1261;19599;-50
2022/05/07 04:18:23;;;;;;;;;15.67;15.00;;;;;22.75;40.23;101489.16;110612;1258;19287;-49
2022/05/07 04:20:50;;;;;;;;;14.00;14.00;;;;;22.76;40.07;101483.77;110576;1258;18813;-50
2022/05/07 04:23:17;;;;;;;;;14.00;14.00;;;;;22.78;39.89;101487.19;110596;1258;19878;-48
2022/05/07 04:25:45;;;;;;;;;18.00;15.00;;;;;22.77;39.86;101484.45;110553;1258;20016;-50
2022/05/07 04:28:12;;;;;;;;;15.00;14.00;;;;;22.77;39.90;101486.08;110562;1258;18742;-49
2022/05/07 04:30:39;;;;;;;;;13.00;11.00;;;;;22.77;39.89;101491.52;110594;1258;19452;-49
2022/05/07 04:33:06;;;;;;;;;11.00;10.50;;;;;22.76;39.94;101489.77;110539;1258;18662;-51
2022/05/07 04:35:34;;;;;;;;;15.00;14.00;;;;;22.77;40.08;101494.45;110572;1258;18952;-49
2022/05/07 04:38:01;;;;;;;;;15.00;14.00;;;;;22.77;40.08;101496.10;110582;1258;21218;-49
2022/05/07 04:40:29;;;;;;;;;11.00;11.00;;;;;22.77;39.97;101492.79;110565;1259;22816;-49
2022/05/07 04:42:57;;;;;;;;;17.00;14.00;;;;;22.78;40.09;101493.41;110574;1258;20189;-48
2022/05/07 04:45:25;;;;;;;;;15.67;13.00;;;;;22.78;40.06;101495.26;110541;1259;19815;-47
2022/05/07 04:47:52;;;;;;;;;11.00;10.67;;;;;22.78;40.00;101497.61;110589;1258;22370;-50
2022/05/07 04:50:20;;;;;;;;;11.00;11.00;;;;;22.78;39.92;101499.66;110528;1259;18887;-50
2022/05/07 04:52:47;;;;;;;;;11.67;11.00;;;;;22.79;39.95;101505.88;110583;1259;19547;-47
2022/05/07 04:55:14;;;;;;;;;13.33;13.00;;;;;22.78;40.04;101503.63;110554;1259;18950;-50
2022/05/07 04:57:41;;;;;;;;;11.00;10.00;;;;;22.78;40.03;101501.64;110547;1259;18825;-51
2022/05/07 05:00:09;;;;;;;;;14.00;13.00;;;;;22.79;40.04;101509.74;110558;1259;22178;-50
2022/05/07 05:02:36;;;;;;;;;15.00;13.00;;;;;22.82;40.02;101510.69;110568;1259;18989;-50
2022/05/07 05:05:03;;;;;;;;;13.00;13.00;;;;;22.83;39.89;101510.45;110576;1259;18809;-48
2022/05/07 05:07:30;;;;;;;;;13.33;13.00;;;;;22.85;39.90;101511.07;110523;1259;19893;-49
2022/05/07 05:09:58;;;;;;;;;17.00;14.00;;;;;22.86;40.05;101511.13;110574;1258;18685;-49
2022/05/07 05:12:25;;;;;;;;;15.00;14.00;;;;;22.87;40.05;101514.15;110513;1258;20389;-50
2022/05/07 05:15:05;;;;;;;;;14.00;13.00;;;;;22.88;39.98;101512.53;110623;1258;19406;-49
2022/05/07 05:17:32;;;;;;;;;11.00;11.00;;;;;22.87;40.22;101516.96;110558;1259;22830;-51
2022/05/07 05:20:00;;;;;;;;;14.33;13.00;;;;;22.87;40.09;101516.47;110596;1258;20757;-48
2022/05/07 05:22:27;;;;;;;;;12.00;12.00;;;;;22.89;40.34;101519.16;110511;1259;19848;-44
2022/05/07 05:24:54;;;;;;;;;14.00;14.00;;;;;22.90;40.64;101521.73;110587;1259;18846;-54
2022/05/07 05:27:21;;;;;;;;;15.00;14.00;;;;;22.93;41.09;101521.06;110582;1258;22262;-49
2022/05/07 05:29:49;;;;;;;;;14.00;13.00;;;;;23.02;41.66;101520.06;110636;1259;19480;-48
2022/05/07 05:32:18;;;;;;;;;15.00;14.00;;;;;23.07;42.01;101520.58;110640;1258;19172;-48
2022/05/07 05:34:45;;;;;;;;;13.00;10.00;;;;;23.11;42.15;101521.06;110476;1258;19204;-48
2022/05/07 05:37:13;;;;;;;;;13.67;13.33;;;;;23.13;42.23;101524.45;110560;1259;22887;-49
2022/05/07 05:39:40;;;;;;;;;11.33;10.67;;;;;23.15;42.32;101522.52;110545;1258;18833;-49
2022/05/07 05:42:07;;;;;;;;;13.00;13.00;;;;;23.20;42.59;101518.61;110530;1259;18745;-48
2022/05/07 05:44:35;;;;;;;;;13.00;11.00;;;;;23.23;42.76;101518.86;110619;1258;19521;-51
2022/05/07 05:47:02;;;;;;;;;13.67;13.33;;;;;23.22;43.03;101520.79;110506;1259;19008;-50
2022/05/07 05:49:29;;;;;;;;;15.00;14.00;;;;;23.23;43.42;101519.00;110612;1259;22258;-50
2022/05/07 05:51:56;;;;;;;;;14.00;13.00;;;;;23.26;43.73;101519.02;110580;1258;19458;-48
2022/05/07 05:54:24;;;;;;;;;13.00;13.00;;;;;23.29;43.89;101518.12;110613;1259;18960;-47
2022/05/07 05:56:52;;;;;;;;;18.00;15.00;;;;;23.33;44.11;101519.24;110570;1258;22364;-47
2022/05/07 05:59:19;;;;;;;;;14.00;14.00;;;;;23.38;44.19;101520.57;110449;1259;19543;-48
2022/05/07 06:01:47;;;;;;;;;14.50;11.50;;;;;23.42;44.28;101520.62;110491;1258;21235;-48
2022/05/07 06:04:15;;;;;;;;;15.50;14.00;;;;;23.47;44.35;101520.52;110572;1259;20236;-49
2022/05/07 06:06:42;;;;;;;;;13.67;13.00;;;;;23.49;44.03;101517.48;110648;1258;19532;-50
2022/05/07 06:09:10;;;;;;;;;14.00;12.00;;;;;23.46;43.99;101514.82;110645;1258;18698;-49
2022/05/07 06:11:37;;;;;;;;;14.67;14.00;;;;;23.48;43.99;101516.09;110636;1259;19015;-48
2022/05/07 06:14:04;;;;;;;;;18.00;14.33;;;;;23.49;43.81;101517.05;110629;1258;22421;-49
2022/05/07 06:16:31;;;;;;;;;14.00;14.00;;;;;23.52;43.94;101514.05;110566;1259;18670;-48
2022/05/07 06:18:59;;;;;;;;;12.00;11.00;;;;;23.51;44.03;101514.81;110454;1259;18860;-51
2022/05/07 06:21:26;;;;;;;;;15.00;15.00;;;;;23.47;44.11;101516.20;110579;1258;19508;-49
2022/05/07 06:23:53;;;;;;;;;15.00;15.00;;;;;23.46;44.88;101516.30;110398;1259;18808;-48
2022/05/07 06:29:05;;;;;;;;;15.50;15.00;;;;;23.43;43.42;101517.51;110372;1259;19434;-46
2022/05/07 06:31:32;;;;;;;;;16.00;15.00;;;;;23.44;42.71;101520.42;110390;1261;18721;-52
2022/05/07 06:34:00;;;;;;;;;13.67;13.67;;;;;23.47;42.68;101518.35;110421;1261;19099;-49
2022/05/07 06:36:27;;;;;;;;;14.33;12.00;;;;;23.47;42.19;101515.34;110554;1258;19775;-50
2022/05/07 06:38:54;;;;;;;;;15.67;13.33;;;;;23.39;41.58;101520.25;110619;1258;19001;-50
2022/05/07 06:41:22;;;;;;;;;14.67;13.00;;;;;23.28;41.36;101517.14;110578;1259;18860;-49
2022/05/07 06:43:49;;;;;;;;;15.00;14.00;;;;;23.14;39.91;101515.63;110494;1259;19622;-47
2022/05/07 06:46:16;;;;;;;;;11.33;11.00;;;;;22.87;39.08;101513.02;110444;1262;22207;-50
2022/05/07 06:48:43;;;;;;;;;11.00;11.00;;;;;22.67;39.55;101512.64;110610;1258;18928;-48
2022/05/07 06:51:11;;;;;;;;;15.00;14.00;;;;;22.61;39.28;101509.48;110573;1258;19662;-49
2022/05/07 06:53:38;;;;;;;;;14.00;13.00;;;;;22.62;39.11;101511.17;110589;1258;19185;-49
2022/05/07 06:56:05;;;;;;;;;13.50;13.00;;;;;22.71;39.58;101508.73;110645;1258;18875;-49
2022/05/07 06:58:33;;;;;;;;;11.00;11.00;;;;;22.87;39.64;101510.84;110587;1258;19581;-48
2022/05/07 07:01:01;;;;;;;;;13.00;11.00;;;;;22.88;39.34;101511.63;110606;1259;18697;-47
2022/05/07 07:03:28;;;;;;;;;13.00;10.00;;;;;22.80;39.39;101510.90;110605;1258;19192;-51
2022/05/07 07:05:55;;;;;;;;;13.33;11.67;;;;;22.80;39.26;101513.18;110533;1259;19525;-47
2022/05/07 07:08:24;;;;;;;;;14.00;11.67;;;;;22.90;40.23;101511.77;110644;1258;18815;-51
2022/05/07 07:10:51;;;;;;;;;13.00;11.00;;;;;23.00;40.64;101509.58;110529;1258;19067;-49
2022/05/07 07:13:18;;;;;;;;;13.67;10.67;;;;;23.07;40.47;101513.46;110431;1259;19514;-48
2022/05/07 07:15:46;;;;;;;;;14.67;14.00;;;;;23.09;40.46;101510.31;110464;1259;18808;-49
2022/05/07 07:18:13;;;;;;;;;15.00;14.00;;;;;23.15;40.55;101511.49;110559;1259;18831;-50
2022/05/07 07:20:40;;;;;;;;;16.33;15.00;;;;;23.15;40.42;101513.85;110576;1258;19519;-49
2022/05/07 07:23:10;;;;;;;;;11.00;10.00;;;;;23.11;40.35;101509.89;110530;1259;18736;-49
2022/05/07 07:25:37;;;;;;;;;12.33;12.33;;;;;23.12;40.12;101510.52;110441;1259;19430;-48
2022/05/07 07:28:05;;;;;;;;;13.00;13.00;;;;;23.16;40.25;101510.67;110597;1259;19462;-48
2022/05/07 07:30:32;;;;;;;;;13.00;11.67;;;;;23.14;39.99;101504.63;110426;1258;18804;-50
2022/05/07 07:32:59;;;;;;;;;11.67;10.33;;;;;23.12;39.65;101502.27;110747;1258;19275;-48
2022/05/07 07:35:27;;;;;;;;;11.33;11.00;;;;;23.12;39.87;101498.31;110635;1258;20977;-51
2022/05/07 07:37:55;;;;;;;;;10.00;9.50;;;;;23.18;39.71;101502.38;110740;1258;23456;-48
2022/05/07 07:40:22;;;;;;;;;10.50;9.50;;;;;23.18;39.38;101498.92;110267;1259;398572;-50
2022/05/07 07:42:49;;;;;;;;;11.50;11.50;;;;;23.21;39.69;101494.05;110715;1258;19396;-47
2022/05/07 07:48:03;;;;;;;;;9.00;9.00;;;;;23.19;39.41;101499.70;110528;1258;20602;-51
2022/05/07 07:50:31;;;;;;;;;11.00;10.00;;;;;23.18;38.90;101503.87;110707;1258;22348;-50
2022/05/07 07:52:58;;;;;;;;;11.00;11.00;;;;;23.18;38.67;101503.70;110558;1258;18687;-51
2022/05/07 07:55:25;;;;;;;;;10.00;10.00;;;;;23.16;38.36;101501.85;110562;1259;18774;-49
2022/05/07 07:57:53;;;;;;;;;11.00;10.00;;;;;23.14;38.37;101501.34;110592;1258;19545;-48
2022/05/07 08:00:20;;;;;;;;;10.67;10.00;;;;;23.20;38.15;101498.19;110530;1258;22799;-47
2022/05/07 08:02:47;;;;;;;;;11.33;10.00;;;;;23.26;38.01;101498.40;110507;1259;18818;-51
2022/05/07 08:05:15;;;;;;;;;9.00;9.00;;;;;23.25;37.75;101497.45;110472;1258;19795;-49
2022/05/07 08:13:12;;;;;;;;;10.00;9.33;;;;;23.35;37.35;101494.79;110621;1258;21047;-49
2022/05/07 08:15:39;;;;;;;;;10.00;7.00;;;;;23.33;37.24;101495.17;110417;1258;18693;-48
2022/05/07 08:18:07;;;;;;;;;9.00;9.00;;;;;23.35;37.13;101491.46;110567;1258;19115;-48
2022/05/07 08:20:34;;;;;;;;;9.00;7.00;;;;;23.37;36.86;101495.13;110367;1259;20198;-48
2022/05/07 08:23:01;;;;;;;;;7.00;7.00;;;;;23.44;36.79;101492.64;110513;1258;23606;-51
2022/05/07 08:25:28;;;;;;;;;9.33;9.00;;;;;23.43;36.64;101493.30;110400;1259;18778;-54
2022/05/07 08:27:56;;;;;;;;;6.00;6.00;;;;;23.43;36.68;101494.84;110603;1258;19529;-51
2022/05/07 08:30:23;;;;;;;;;7.00;6.50;;;;;23.42;36.56;101500.71;110488;1258;22718;-48
2022/05/07 08:32:51;;;;;;;;;7.00;7.00;;;;;23.39;36.61;101497.58;110513;1258;18994;-49
2022/05/07 08:35:18;;;;;;;;;5.33;5.33;;;;;23.42;36.45;101493.60;110399;1258;19520;-48
2022/05/07 08:37:46;;;;;;;;;8.33;6.00;;;;;23.46;36.47;101487.88;110367;1258;22717;-50
2022/05/07 08:40:14;;;;;;;;;7.00;6.00;;;;;23.45;36.37;101493.05;110541;1258;18726;-47
2022/05/07 08:42:41;;;;;;;;;6.00;6.00;;;;;23.43;36.38;101497.29;110488;1259;19786;-49
2022/05/07 08:45:09;;;;;;;;;6.00;6.00;;;;;23.38;36.67;101494.83;110504;1258;18432;-51
2022/05/07 08:47:36;;;;;;;;;7.00;7.00;;;;;23.39;36.39;101489.27;110533;1258;18789;-50
2022/05/07 08:50:03;;;;;;;;;7.00;7.00;;;;;23.39;36.52;101487.77;110515;1258;19482;-50
2022/05/07 08:52:32;;;;;;;;;7.00;7.00;;;;;23.28;36.62;101488.48;110447;1259;22222;-49
2022/05/07 08:55:00;;;;;;;;;8.00;8.00;;;;;23.26;36.51;101487.12;110460;1258;23995;-48
2022/05/07 08:57:27;;;;;;;;;10.50;10.50;;;;;23.39;36.60;101489.98;110411;1259;19316;-48
2022/05/07 08:59:54;;;;;;;;;9.33;9.00;;;;;23.32;36.29;101486.97;110469;1259;18540;-49
2022/05/07 09:02:21;;;;;;;;;10.00;9.00;;;;;23.23;36.61;101485.42;110429;1259;18819;-47
2022/05/07 09:04:48;;;;;;;;;9.00;7.00;;;;;23.27;36.54;101482.75;110365;1258;22426;-49
2022/05/07 09:07:16;;;;;;;;;7.00;7.00;;;;;23.30;36.64;101484.63;110574;1258;18898;-50
2022/05/07 09:09:43;;;;;;;;;7.00;7.00;;;;;23.37;36.66;101489.86;110465;1259;18750;-50
2022/05/07 09:12:10;;;;;;;;;11.00;11.00;;;;;23.49;36.86;101490.59;110528;1259;21936;-51
2022/05/07 09:14:37;;;;;;;;;9.00;8.33;;;;;23.51;36.73;101491.01;110606;1258;20029;-50
2022/05/07 09:17:05;;;;;;;;;9.00;9.00;;;;;23.44;36.68;101492.40;110611;1259;18849;-52
2022/05/07 09:19:32;;;;;;;;;9.00;8.33;;;;;23.44;36.87;101485.57;110525;1258;20261;-50
2022/05/07 09:21:59;;;;;;;;;9.00;9.00;;;;;23.45;36.88;101483.02;110555;1259;18460;-47
2022/05/07 09:24:28;;;;;;;;;9.00;9.00;;;;;23.44;37.09;101485.70;110435;1259;18752;-48
2022/05/07 09:26:55;;;;;;;;;9.00;9.00;;;;;23.38;37.18;101484.80;110382;1259;19486;-48
2022/05/07 09:29:22;;;;;;;;;9.33;9.00;;;;;23.26;36.98;101484.87;110594;1258;23073;-47
2022/05/07 09:31:50;;;;;;;;;9.00;9.00;;;;;23.18;36.99;101485.95;110715;1258;18950;-49
2022/05/07 09:37:02;;;;;;;;;7.00;7.00;;;;;23.18;37.15;101487.09;110711;1258;22916;-50
2022/05/07 09:39:29;;;;;;;;;7.00;7.00;;;;;23.19;37.11;101486.61;110581;1258;22283;-50
2022/05/07 09:41:58;;;;;;;;;7.00;7.00;;;;;23.16;36.99;101480.92;110442;1261;19513;-49
2022/05/07 09:44:27;;;;;;;;;10.00;9.00;;;;;23.07;37.04;101483.20;110649;1258;19068;-50
2022/05/07 09:46:55;;;;;;;;;7.00;7.00;;;;;23.08;36.86;101481.60;110729;1258;18815;-49
2022/05/07 09:49:22;;;;;;;;;9.67;9.00;;;;;23.07;36.95;101483.34;110618;1258;19523;-50
2022/05/07 09:51:50;;;;;;;;;12.67;10.67;;;;;23.03;37.05;101482.27;110491;1260;18472;-49
2022/05/07 09:59:50;;;;;;;;;11.67;9.67;;;;;22.93;37.44;101481.39;110492;1260;18966;-49
2022/05/07 10:02:17;;;;;;;;;8.33;7.00;;;;;22.86;37.34;101477.08;110810;1259;18760;-49
2022/05/07 10:04:44;;;;;;;;;11.00;9.67;;;;;22.81;37.49;101475.42;110820;1258;22625;-49
2022/05/07 10:07:12;;;;;;;;;9.00;8.33;;;;;22.77;37.68;101474.04;110626;1258;18476;-48
2022/05/07 10:09:39;;;;;;;;;8.33;7.67;;;;;22.74;37.72;101470.38;110746;1258;18823;-48
2022/05/07 10:12:06;;;;;;;;;7.00;7.00;;;;;22.76;37.73;101471.02;110760;1259;19620;-54
2022/05/07 10:14:33;;;;;;;;;10.33;9.00;;;;;22.77;37.84;101466.20;110716;1258;18520;-48
2022/05/07 10:17:01;;;;;;;;;9.00;9.00;;;;;22.72;37.79;101464.09;110660;1258;19317;-51
2022/05/07 10:19:28;;;;;;;;;7.00;6.00;;;;;22.74;37.80;101465.45;110741;1259;19909;-49
2022/05/07 10:21:55;;;;;;;;;9.00;9.00;;;;;22.73;37.65;101464.98;110623;1259;18715;-49
2022/05/07 10:24:22;;;;;;;;;7.00;7.00;;;;;22.73;37.76;101462.80;110696;1259;23073;-50
2022/05/07 10:26:50;;;;;;;;;9.00;9.00;;;;;22.76;37.72;101461.15;110765;1259;22039;-48
2022/05/07 10:29:19;;;;;;;;;9.00;7.00;;;;;22.78;37.74;101455.33;110696;1259;18573;-47
2022/05/07 10:31:46;;;;;;;;;7.00;7.00;;;;;22.76;37.95;101457.73;110675;1259;18733;-48
2022/05/07 10:34:14;;;;;;;;;9.33;9.00;;;;;22.75;37.86;101454.36;110736;1259;19652;-51
2022/05/07 10:36:41;;;;;;;;;7.67;7.00;;;;;22.75;37.81;101454.63;110629;1259;18280;-48
2022/05/07 10:39:08;;;;;;;;;10.00;7.00;;;;;22.72;37.81;101450.92;110796;1259;18629;-49
2022/05/07 10:41:36;;;;;;;;;7.00;7.00;;;;;22.71;38.01;101455.94;110753;1258;19599;-49
2022/05/07 10:44:05;;;;;;;;;10.33;9.67;;;;;22.70;37.94;101454.63;110659;1258;18860;-49
2022/05/07 10:46:32;;;;;;;;;9.33;8.33;;;;;22.72;38.10;101453.48;110752;1259;21994;-49
2022/05/07 10:49:00;;;;;;;;;10.00;9.67;;;;;22.69;38.12;101453.95;110640;1258;19571;-49
2022/05/07 10:51:27;;;;;;;;;11.00;9.67;;;;;22.68;38.24;101449.55;110763;1259;18544;-49
2022/05/07 10:53:56;;;;;;;;;7.00;7.00;;;;;22.69;38.32;101451.19;110798;1259;21911;-49
2022/05/07 10:56:24;;;;;;;;;7.00;7.00;;;;;22.75;38.26;101448.04;110674;1258;21592;-50
2022/05/07 10:58:51;;;;;;;;;7.00;7.00;;;;;22.77;38.31;101449.80;110752;1258;18492;-49
2022/05/07 11:01:19;;;;;;;;;9.50;9.00;;;;;22.81;38.29;101445.73;110604;1259;18760;-50
2022/05/07 11:03:46;;;;;;;;;7.00;7.00;;;;;22.81;38.10;101443.15;110776;1258;22236;-49
2022/05/07 11:06:13;;;;;;;;;11.67;11.00;;;;;22.84;38.03;101442.97;110601;1259;18619;-50
2022/05/07 11:08:40;;;;;;;;;9.67;9.33;;;;;22.83;38.07;101443.09;110813;1258;18859;-49
2022/05/07 11:11:09;;;;;;;;;12.33;10.00;;;;;22.80;38.01;101438.91;110824;1258;19874;-50
2022/05/07 11:13:37;;;;;;;;;9.00;9.00;;;;;22.76;38.06;101441.38;110584;1259;22829;-50
2022/05/07 11:16:04;;;;;;;;;9.00;9.00;;;;;22.76;38.14;101438.84;110772;1259;18789;-49
2022/05/07 11:18:32;;;;;;;;;9.33;9.00;;;;;22.76;38.40;101439.55;110635;1258;19553;-50
2022/05/07 11:20:59;;;;;;;;;9.33;9.00;;;;;22.71;38.43;101436.98;110792;1259;18488;-49
2022/05/07 11:23:26;;;;;;;;;8.33;7.67;;;;;22.68;38.45;101437.70;110697;1259;18749;-49
2022/05/07 11:25:54;;;;;;;;;12.33;9.67;;;;;22.63;38.55;101432.33;110714;1259;19460;-49
2022/05/07 11:28:21;;;;;;;;;7.67;7.67;;;;;22.62;38.49;101425.20;110582;1258;18432;-48
2022/05/07 11:30:48;;;;;;;;;7.67;7.67;;;;;22.63;38.58;101424.04;110486;1261;21730;-48